logo
Search for airport 
image banner adimage banner adimage banner ad
image banner ad

SNTL - Fazenda Treze Estrelas

Located in Araguaína, Brazil

ICAO - SNTL, IATA -

Data provided by Airmate  

General information

Coordinates: S7°13'8" W49°10'9"
Elevation is 774 feet MSL.
Magnetic variation is -20° East
View others Airports in Tocatins

Operational data

Special qualification required
Current time UTC:
Current local time:
Weather at : - ( 0 km )
METAR: PFEL 140403Z AUTO 07007KT 10SM OVC028 M05/M10 A3006 RMK AO2 FZRANO
View NOTAMs / SUP AIP / TFR affecting this airport [VIEW]
Communications frequencies: [VIEW]

Runways:

RWY identifierQFULength (ft)Width (ft)SurfaceLDA (ft)
11328182GRAVEL
29328182GRAVEL

Airport contact information

Address: Araguaína Brazil

Satellite view of SNTL